KPIB/PIB METAR and TAF weather

Enter ICAO airport designator
Station Type Date Time Source
KPIB METAR 2018/12/10 07:56 UTC NOAA

KPIB 100756Z AUTO 34005KT 7SM OVC007 03/02 A3021 RMK AO2 SLP231 T00330022


Station Type Date Time Source
KPIB Decoded METAR 2018/12/10 07:56 UTC NOAA

Hattiesburg/Laurel, Hattiesburg-Laurel Regional Airport, MS, United States (KPIB) 31-28N 089-20W
Dec 10, 2018 - 02:56 AM EST / 2018.12.10 0756 UTC
Wind: from the NNW (340 degrees) at 6 MPH (5 KT):0
Visibility: 7 mile(s):0
Sky conditions: overcast
Temperature: 37.9 F (3.3 C)
Dew Point: 36.0 F (2.2 C)
Relative Humidity: 92%
Pressure (altimeter): 30.21 in. Hg (1023 hPa)
ob: KPIB 100756Z AUTO 34005KT 7SM OVC007 03/02 A3021 RMK AO2 SLP231 T00330022
cycle: 8

Station Type Date Time Source
KPIB TAF 2018/12/10 06:21 UTC NOAA

TAF KPIB 100520Z 1006/1106 33005KT P6SM OVC009
FM101400 32008KT P6SM SCT025 SCT040


Example: see airport list